sensor_id;sensor_type;location;lat;lon;timestamp;noise_LAeq;noise_LA_min;noise_LA_max;noise_LA01;noise_LA95
57092;Laerm;42968;52.094;4.328;2022-10-16T00:01:22;59.46;43.63;74.51;;
57092;Laerm;42968;52.094;4.328;2022-10-16T00:03:48;58.23;42.76;72.79;;
57092;Laerm;42968;52.094;4.328;2022-10-16T00:06:13;62.18;42.98;77.37;;
57092;Laerm;42968;52.094;4.328;2022-10-16T00:08:39;57.17;43.49;73.27;;
57092;Laerm;42968;52.094;4.328;2022-10-16T00:11:06;59.57;43.63;76.17;;
57092;Laerm;42968;52.094;4.328;2022-10-16T00:13:32;59.13;43.09;75.19;;
57092;Laerm;42968;52.094;4.328;2022-10-16T00:15:58;59.77;42.65;74.56;;
57092;Laerm;42968;52.094;4.328;2022-10-16T00:18:24;54.21;41.89;78.58;;
57092;Laerm;42968;52.094;4.328;2022-10-16T00:20:50;56.41;41.14;74.76;;
57092;Laerm;42968;52.094;4.328;2022-10-16T00:23:15;60.72;41.30;77.44;;
57092;Laerm;42968;52.094;4.328;2022-10-16T00:25:40;56.78;42.29;72.64;;
57092;Laerm;42968;52.094;4.328;2022-10-16T00:28:06;52.75;42.19;71.80;;
57092;Laerm;42968;52.094;4.328;2022-10-16T00:30:31;55.85;40.23;72.54;;
57092;Laerm;42968;52.094;4.328;2022-10-16T00:32:56;57.24;42.41;70.46;;
57092;Laerm;42968;52.094;4.328;2022-10-16T00:35:21;57.27;40.62;73.69;;
57092;Laerm;42968;52.094;4.328;2022-10-16T00:37:47;54.83;41.14;70.65;;
57092;Laerm;42968;52.094;4.328;2022-10-16T00:40:12;59.53;40.89;73.80;;
57092;Laerm;42968;52.094;4.328;2022-10-16T00:42:37;59.36;42.16;71.45;;
57092;Laerm;42968;52.094;4.328;2022-10-16T00:45:03;58.02;41.75;71.83;;
57092;Laerm;42968;52.094;4.328;2022-10-16T00:47:30;63.06;41.61;86.94;;
57092;Laerm;42968;52.094;4.328;2022-10-16T00:50:02;56.67;39.21;71.01;;
57092;Laerm;42968;52.094;4.328;2022-10-16T00:52:30;55.16;40.89;68.64;;
57092;Laerm;42968;52.094;4.328;2022-10-16T00:54:55;58.22;40.33;74.13;;
57092;Laerm;42968;52.094;4.328;2022-10-16T00:57:21;53.39;41.30;69.44;;
57092;Laerm;42968;52.094;4.328;2022-10-16T00:59:47;54.50;39.58;68.87;;
57092;Laerm;42968;52.094;4.328;2022-10-16T01:02:13;56.41;40.62;71.06;;
57092;Laerm;42968;52.094;4.328;2022-10-16T01:04:49;54.16;40.89;70.44;;
57092;Laerm;42968;52.094;4.328;2022-10-16T01:15:10;56.19;40.89;79.37;;
57092;Laerm;42968;52.094;4.328;2022-10-16T01:20:14;47.54;39.58;74.14;;
57092;Laerm;42968;52.094;4.328;2022-10-16T01:22:54;54.24;38.81;69.03;;
57092;Laerm;42968;52.094;4.328;2022-10-16T01:28:05;59.20;42.41;75.37;;
57092;Laerm;42968;52.094;4.328;2022-10-16T01:30:32;49.31;40.45;68.35;;
57092;Laerm;42968;52.094;4.328;2022-10-16T01:35:38;57.52;39.81;71.83;;
57092;Laerm;42968;52.094;4.328;2022-10-16T01:40:29;55.81;41.06;73.04;;
57092;Laerm;42968;52.094;4.328;2022-10-16T01:43:17;57.64;41.61;71.29;;
57092;Laerm;42968;52.094;4.328;2022-10-16T01:45:44;53.57;40.71;71.00;;
57092;Laerm;42968;52.094;4.328;2022-10-16T01:48:09;57.07;41.68;71.44;;
57092;Laerm;42968;52.094;4.328;2022-10-16T01:50:38;56.00;40.33;70.65;;
57092;Laerm;42968;52.094;4.328;2022-10-16T01:53:05;51.81;40.03;67.89;;
57092;Laerm;42968;52.094;4.328;2022-10-16T01:55:32;58.18;42.03;74.37;;
57092;Laerm;42968;52.094;4.328;2022-10-16T01:57:59;60.58;40.98;72.49;;
57092;Laerm;42968;52.094;4.328;2022-10-16T02:00:25;59.88;41.68;74.12;;
57092;Laerm;42968;52.094;4.328;2022-10-16T02:02:52;57.33;41.30;70.54;;
57092;Laerm;42968;52.094;4.328;2022-10-16T02:05:31;56.51;41.46;70.97;;
57092;Laerm;42968;52.094;4.328;2022-10-16T02:07:57;43.29;39.92;53.18;;
57092;Laerm;42968;52.094;4.328;2022-10-16T02:10:26;49.99;39.92;65.77;;
57092;Laerm;42968;52.094;4.328;2022-10-16T02:13:30;56.81;40.62;76.16;;
57092;Laerm;42968;52.094;4.328;2022-10-16T02:15:47;45.28;39.70;60.60;;
57092;Laerm;42968;52.094;4.328;2022-10-16T02:18:12;44.54;39.46;54.49;;
57092;Laerm;42968;52.094;4.328;2022-10-16T02:20:51;56.94;40.03;71.77;;
57092;Laerm;42968;52.094;4.328;2022-10-16T02:23:28;49.15;40.33;65.46;;
57092;Laerm;42968;52.094;4.328;2022-10-16T02:25:54;55.93;41.53;72.29;;
57092;Laerm;42968;52.094;4.328;2022-10-16T02:28:27;60.65;41.30;76.25;;
57092;Laerm;42968;52.094;4.328;2022-10-16T02:31:01;57.03;40.23;71.74;;
57092;Laerm;42968;52.094;4.328;2022-10-16T02:33:27;55.55;41.68;74.26;;
57092;Laerm;42968;52.094;4.328;2022-10-16T02:35:54;53.95;41.68;69.07;;
57092;Laerm;42968;52.094;4.328;2022-10-16T02:38:20;54.62;40.71;71.43;;
57092;Laerm;42968;52.094;4.328;2022-10-16T02:40:46;43.68;39.34;55.33;;
57092;Laerm;42968;52.094;4.328;2022-10-16T02:43:11;53.51;41.06;72.14;;
57092;Laerm;42968;52.094;4.328;2022-10-16T02:45:37;43.50;39.92;50.44;;
57092;Laerm;42968;52.094;4.328;2022-10-16T02:48:03;42.73;39.70;54.01;;
57092;Laerm;42968;52.094;4.328;2022-10-16T02:50:28;53.25;39.46;68.64;;
57092;Laerm;42968;52.094;4.328;2022-10-16T02:52:53;50.82;39.11;71.76;;
57092;Laerm;42968;52.094;4.328;2022-10-16T02:55:19;56.05;39.70;73.64;;
57092;Laerm;42968;52.094;4.328;2022-10-16T02:57:44;52.47;39.89;69.79;;
57092;Laerm;42968;52.094;4.328;2022-10-16T03:00:10;52.23;39.46;69.74;;
57092;Laerm;42968;52.094;4.328;2022-10-16T03:02:37;49.59;39.34;69.69;;
57092;Laerm;42968;52.094;4.328;2022-10-16T03:05:02;58.83;40.98;76.16;;
57092;Laerm;42968;52.094;4.328;2022-10-16T03:07:27;51.75;38.95;67.89;;
57092;Laerm;42968;52.094;4.328;2022-10-16T03:09:53;54.14;39.34;75.40;;
57092;Laerm;42968;52.094;4.328;2022-10-16T03:12:19;55.38;40.23;72.02;;
57092;Laerm;42968;52.094;4.328;2022-10-16T03:14:44;56.99;40.18;68.89;;
57092;Laerm;42968;52.094;4.328;2022-10-16T03:17:10;60.60;41.14;77.10;;
57092;Laerm;42968;52.094;4.328;2022-10-16T03:19:35;57.80;42.09;72.10;;
57092;Laerm;42968;52.094;4.328;2022-10-16T03:22:01;61.31;41.30;75.28;;
57092;Laerm;42968;52.094;4.328;2022-10-16T03:24:26;58.33;41.19;75.04;;
57092;Laerm;42968;52.094;4.328;2022-10-16T03:26:53;62.28;42.71;77.21;;
57092;Laerm;42968;52.094;4.328;2022-10-16T03:29:19;60.22;42.09;75.68;;
57092;Laerm;42968;52.094;4.328;2022-10-16T03:31:44;59.20;42.93;72.79;;
57092;Laerm;42968;52.094;4.328;2022-10-16T03:34:09;57.01;40.43;73.17;;
57092;Laerm;42968;52.094;4.328;2022-10-16T03:36:35;59.78;42.35;73.09;;
57092;Laerm;42968;52.094;4.328;2022-10-16T03:39:00;57.85;40.43;75.36;;
57092;Laerm;42968;52.094;4.328;2022-10-16T03:41:25;54.54;40.62;74.69;;
57092;Laerm;42968;52.094;4.328;2022-10-16T03:43:51;59.55;40.23;72.83;;
57092;Laerm;42968;52.094;4.328;2022-10-16T03:46:16;55.86;41.89;74.88;;
57092;Laerm;42968;52.094;4.328;2022-10-16T03:48:41;56.06;41.96;73.72;;
57092;Laerm;42968;52.094;4.328;2022-10-16T03:51:06;57.06;42.03;75.07;;
57092;Laerm;42968;52.094;4.328;2022-10-16T03:53:31;57.70;41.96;72.45;;
57092;Laerm;42968;52.094;4.328;2022-10-16T03:55:57;57.43;40.03;75.20;;
57092;Laerm;42968;52.094;4.328;2022-10-16T03:58:23;56.09;39.92;74.37;;
57092;Laerm;42968;52.094;4.328;2022-10-16T04:00:48;58.60;40.98;74.29;;
57092;Laerm;42968;52.094;4.328;2022-10-16T04:03:13;54.70;38.21;71.59;;
57092;Laerm;42968;52.094;4.328;2022-10-16T04:05:39;43.02;38.37;60.58;;
57092;Laerm;42968;52.094;4.328;2022-10-16T04:08:04;58.54;39.46;75.63;;
57092;Laerm;42968;52.094;4.328;2022-10-16T04:10:30;61.54;40.13;75.78;;
57092;Laerm;42968;52.094;4.328;2022-10-16T04:12:55;58.61;40.62;73.95;;
57092;Laerm;42968;52.094;4.328;2022-10-16T04:15:21;59.68;42.35;73.09;;
57092;Laerm;42968;52.094;4.328;2022-10-16T04:17:47;60.95;42.22;73.29;;
57092;Laerm;42968;52.094;4.328;2022-10-16T04:20:12;59.33;39.34;76.13;;
57092;Laerm;42968;52.094;4.328;2022-10-16T04:22:37;59.61;41.46;73.76;;
57092;Laerm;42968;52.094;4.328;2022-10-16T04:25:04;55.28;39.70;73.16;;
57092;Laerm;42968;52.094;4.328;2022-10-16T04:27:29;60.98;41.68;74.04;;
57092;Laerm;42968;52.094;4.328;2022-10-16T04:29:56;57.92;40.53;75.20;;
57092;Laerm;42968;52.094;4.328;2022-10-16T04:32:21;56.31;40.33;72.73;;
57092;Laerm;42968;52.094;4.328;2022-10-16T04:34:47;62.78;43.34;73.44;;
57092;Laerm;42968;52.094;4.328;2022-10-16T04:37:12;62.04;47.46;74.79;;
57092;Laerm;42968;52.094;4.328;2022-10-16T04:39:37;57.95;44.51;71.82;;
57092;Laerm;42968;52.094;4.328;2022-10-16T04:42:03;60.47;44.27;72.62;;
57092;Laerm;42968;52.094;4.328;2022-10-16T04:44:28;56.88;44.73;73.20;;
57092;Laerm;42968;52.094;4.328;2022-10-16T04:46:53;59.70;45.57;73.04;;
57092;Laerm;42968;52.094;4.328;2022-10-16T04:49:19;58.33;44.47;73.16;;
57092;Laerm;42968;52.094;4.328;2022-10-16T04:51:44;63.84;44.94;75.10;;
57092;Laerm;42968;52.094;4.328;2022-10-16T04:54:09;60.09;46.69;73.06;;
57092;Laerm;42968;52.094;4.328;2022-10-16T04:56:35;61.06;44.03;78.51;;
57092;Laerm;42968;52.094;4.328;2022-10-16T04:59:07;61.65;45.39;74.96;;
57092;Laerm;42968;52.094;4.328;2022-10-16T05:01:33;60.76;43.44;73.70;;
57092;Laerm;42968;52.094;4.328;2022-10-16T05:03:58;58.11;46.89;72.53;;
57092;Laerm;42968;52.094;4.328;2022-10-16T05:06:23;58.48;42.65;72.55;;
57092;Laerm;42968;52.094;4.328;2022-10-16T05:08:48;59.30;44.19;72.38;;
57092;Laerm;42968;52.094;4.328;2022-10-16T05:11:14;63.09;44.47;76.08;;
57092;Laerm;42968;52.094;4.328;2022-10-16T05:13:39;62.53;50.00;74.91;;
57092;Laerm;42968;52.094;4.328;2022-10-16T05:16:04;63.65;50.04;75.63;;
57092;Laerm;42968;52.094;4.328;2022-10-16T05:18:30;64.37;46.76;80.54;;
57092;Laerm;42968;52.094;4.328;2022-10-16T05:20:55;63.17;47.55;77.35;;
57092;Laerm;42968;52.094;4.328;2022-10-16T05:23:20;61.21;46.93;74.30;;
57092;Laerm;42968;52.094;4.328;2022-10-16T05:25:51;63.46;46.62;75.49;;
57092;Laerm;42968;52.094;4.328;2022-10-16T05:28:17;61.47;44.76;77.64;;
57092;Laerm;42968;52.094;4.328;2022-10-16T05:30:42;64.17;42.71;74.66;;
57092;Laerm;42968;52.094;4.328;2022-10-16T05:33:07;64.43;45.07;76.30;;
57092;Laerm;42968;52.094;4.328;2022-10-16T05:35:33;68.41;45.63;85.03;;
57092;Laerm;42968;52.094;4.328;2022-10-16T05:37:58;63.66;43.94;76.23;;
57092;Laerm;42968;52.094;4.328;2022-10-16T05:40:24;61.40;43.24;78.18;;
57092;Laerm;42968;52.094;4.328;2022-10-16T05:42:49;65.75;45.39;81.51;;
57092;Laerm;42968;52.094;4.328;2022-10-16T05:45:14;64.23;44.97;77.87;;
57092;Laerm;42968;52.094;4.328;2022-10-16T05:47:40;66.77;46.28;80.15;;
57092;Laerm;42968;52.094;4.328;2022-10-16T05:50:05;63.30;43.68;78.34;;
57092;Laerm;42968;52.094;4.328;2022-10-16T05:52:30;64.95;46.57;75.75;;
57092;Laerm;42968;52.094;4.328;2022-10-16T05:54:56;67.11;44.94;81.14;;
57092;Laerm;42968;52.094;4.328;2022-10-16T05:57:21;66.22;43.63;76.68;;
57092;Laerm;42968;52.094;4.328;2022-10-16T05:59:46;64.94;46.23;79.36;;
57092;Laerm;42968;52.094;4.328;2022-10-16T06:02:12;65.02;44.73;79.36;;
57092;Laerm;42968;52.094;4.328;2022-10-16T06:04:37;64.29;44.23;77.18;;
57092;Laerm;42968;52.094;4.328;2022-10-16T06:07:03;67.44;46.40;81.89;;
57092;Laerm;42968;52.094;4.328;2022-10-16T06:09:28;62.76;43.19;78.52;;
57092;Laerm;42968;52.094;4.328;2022-10-16T06:11:53;64.21;41.75;80.22;;
57092;Laerm;42968;52.094;4.328;2022-10-16T06:14:19;63.95;47.16;76.00;;
57092;Laerm;42968;52.094;4.328;2022-10-16T06:16:44;66.48;43.99;79.27;;
57092;Laerm;42968;52.094;4.328;2022-10-16T06:19:09;66.67;46.02;82.89;;
57092;Laerm;42968;52.094;4.328;2022-10-16T06:21:34;64.72;43.90;75.84;;
57092;Laerm;42968;52.094;4.328;2022-10-16T06:24:00;62.42;44.58;74.62;;
57092;Laerm;42968;52.094;4.328;2022-10-16T06:26:26;65.82;44.15;77.34;;
57092;Laerm;42968;52.094;4.328;2022-10-16T06:28:53;66.86;47.00;78.31;;
57092;Laerm;42968;52.094;4.328;2022-10-16T06:31:21;65.24;43.94;78.60;;
57092;Laerm;42968;52.094;4.328;2022-10-16T06:33:49;64.80;45.91;74.21;;
57092;Laerm;42968;52.094;4.328;2022-10-16T06:36:15;64.12;44.51;82.33;;
57092;Laerm;42968;52.094;4.328;2022-10-16T06:38:42;68.57;53.55;78.29;;
57092;Laerm;42968;52.094;4.328;2022-10-16T06:41:09;65.01;48.00;76.45;;
57092;Laerm;42968;52.094;4.328;2022-10-16T06:43:34;65.24;47.20;75.60;;
57092;Laerm;42968;52.094;4.328;2022-10-16T06:46:03;66.56;48.48;78.13;;
57092;Laerm;42968;52.094;4.328;2022-10-16T06:48:28;67.64;51.06;82.81;;
57092;Laerm;42968;52.094;4.328;2022-10-16T06:53:22;66.77;45.04;77.05;;
57092;Laerm;42968;52.094;4.328;2022-10-16T06:55:47;66.50;48.91;80.76;;
57092;Laerm;42968;52.094;4.328;2022-10-16T06:58:13;67.25;47.96;78.88;;
57092;Laerm;42968;52.094;4.328;2022-10-16T07:00:38;66.76;49.16;81.50;;
57092;Laerm;42968;52.094;4.328;2022-10-16T07:03:03;68.21;50.13;77.65;;
57092;Laerm;42968;52.094;4.328;2022-10-16T07:05:28;66.34;49.33;75.69;;
57092;Laerm;42968;52.094;4.328;2022-10-16T07:07:54;63.34;45.07;77.29;;
57092;Laerm;42968;52.094;4.328;2022-10-16T07:10:21;67.14;47.28;78.74;;
57092;Laerm;42968;52.094;4.328;2022-10-16T07:12:49;65.87;47.57;76.06;;
57092;Laerm;42968;52.094;4.328;2022-10-16T07:15:14;66.77;47.88;75.48;;
57092;Laerm;42968;52.094;4.328;2022-10-16T07:17:39;68.40;48.18;80.25;;
57092;Laerm;42968;52.094;4.328;2022-10-16T07:20:05;68.53;48.96;76.64;;
57092;Laerm;42968;52.094;4.328;2022-10-16T07:22:31;68.29;50.04;78.14;;
57092;Laerm;42968;52.094;4.328;2022-10-16T07:24:57;68.83;52.59;80.24;;
57092;Laerm;42968;52.094;4.328;2022-10-16T07:27:23;68.32;49.87;79.85;;
57092;Laerm;42968;52.094;4.328;2022-10-16T07:29:49;66.79;47.90;76.49;;
57092;Laerm;42968;52.094;4.328;2022-10-16T07:32:14;67.81;49.11;78.22;;
57092;Laerm;42968;52.094;4.328;2022-10-16T07:34:39;67.32;47.76;76.37;;
57092;Laerm;42968;52.094;4.328;2022-10-16T07:37:05;68.37;52.81;79.71;;
57092;Laerm;42968;52.094;4.328;2022-10-16T07:39:30;69.06;49.11;82.06;;
57092;Laerm;42968;52.094;4.328;2022-10-16T07:41:56;68.82;47.90;83.04;;
57092;Laerm;42968;52.094;4.328;2022-10-16T07:44:21;68.76;53.12;76.17;;
57092;Laerm;42968;52.094;4.328;2022-10-16T07:46:46;67.07;48.74;78.93;;
57092;Laerm;42968;52.094;4.328;2022-10-16T07:49:12;69.41;51.49;79.78;;
57092;Laerm;42968;52.094;4.328;2022-10-16T07:51:38;70.35;59.11;80.63;;
57092;Laerm;42968;52.094;4.328;2022-10-16T07:54:04;68.55;47.16;81.52;;
57092;Laerm;42968;52.094;4.328;2022-10-16T07:56:30;67.28;51.08;77.27;;
57092;Laerm;42968;52.094;4.328;2022-10-16T07:58:55;68.45;50.58;77.05;;
57092;Laerm;42968;52.094;4.328;2022-10-16T08:01:21;70.20;52.19;80.75;;
57092;Laerm;42968;52.094;4.328;2022-10-16T08:03:50;69.17;48.05;80.55;;
57092;Laerm;42968;52.094;4.328;2022-10-16T08:06:16;68.46;49.89;78.32;;
57092;Laerm;42968;52.094;4.328;2022-10-16T08:08:41;69.67;51.07;80.46;;
57092;Laerm;42968;52.094;4.328;2022-10-16T08:11:16;69.09;53.71;77.11;;
57092;Laerm;42968;52.094;4.328;2022-10-16T08:13:41;69.57;56.26;75.71;;
57092;Laerm;42968;52.094;4.328;2022-10-16T08:16:09;68.78;53.08;76.39;;
57092;Laerm;42968;52.094;4.328;2022-10-16T08:18:35;68.70;50.22;77.61;;
57092;Laerm;42968;52.094;4.328;2022-10-16T08:21:01;68.18;49.89;75.59;;
57092;Laerm;42968;52.094;4.328;2022-10-16T08:23:27;70.48;48.60;85.46;;
57092;Laerm;42968;52.094;4.328;2022-10-16T08:25:53;69.54;46.45;77.20;;
57092;Laerm;42968;52.094;4.328;2022-10-16T08:28:18;68.71;47.88;80.61;;
57092;Laerm;42968;52.094;4.328;2022-10-16T08:30:44;68.55;45.91;76.17;;
57092;Laerm;42968;52.094;4.328;2022-10-16T08:33:09;68.62;47.88;81.85;;
57092;Laerm;42968;52.094;4.328;2022-10-16T08:35:34;70.72;49.32;80.21;;
57092;Laerm;42968;52.094;4.328;2022-10-16T08:37:59;68.21;46.33;77.71;;
57092;Laerm;42968;52.094;4.328;2022-10-16T08:40:26;69.50;51.08;80.25;;
57092;Laerm;42968;52.094;4.328;2022-10-16T08:50:27;69.93;50.41;78.59;;
57092;Laerm;42968;52.094;4.328;2022-10-16T08:52:53;69.08;53.93;78.87;;
57092;Laerm;42968;52.094;4.328;2022-10-16T08:55:28;68.44;49.63;76.21;;
57092;Laerm;42968;52.094;4.328;2022-10-16T08:57:54;69.86;52.83;78.09;;
57092;Laerm;42968;52.094;4.328;2022-10-16T09:00:19;69.37;57.92;78.85;;
57092;Laerm;42968;52.094;4.328;2022-10-16T09:02:53;70.07;51.89;82.67;;
57092;Laerm;42968;52.094;4.328;2022-10-16T09:12:55;67.12;47.26;75.75;;
57092;Laerm;42968;52.094;4.328;2022-10-16T09:16:10;69.60;52.17;78.42;;
57092;Laerm;42968;52.094;4.328;2022-10-16T09:18:14;68.85;51.59;78.91;;
57092;Laerm;42968;52.094;4.328;2022-10-16T09:23:26;69.18;54.53;77.51;;
57092;Laerm;42968;52.094;4.328;2022-10-16T09:25:51;71.36;51.90;90.00;;
57092;Laerm;42968;52.094;4.328;2022-10-16T09:28:18;69.75;48.29;78.25;;
57092;Laerm;42968;52.094;4.328;2022-10-16T09:30:43;69.66;52.31;78.28;;
57092;Laerm;42968;52.094;4.328;2022-10-16T09:33:10;69.95;58.15;76.94;;
57092;Laerm;42968;52.094;4.328;2022-10-16T09:35:37;69.24;53.63;78.19;;
57092;Laerm;42968;52.094;4.328;2022-10-16T09:38:03;70.66;50.85;79.06;;
57092;Laerm;42968;52.094;4.328;2022-10-16T09:40:30;69.33;56.90;81.49;;
57092;Laerm;42968;52.094;4.328;2022-10-16T09:42:57;70.07;46.91;77.67;;
57092;Laerm;42968;52.094;4.328;2022-10-16T09:45:26;70.02;47.77;81.20;;
57092;Laerm;42968;52.094;4.328;2022-10-16T09:47:51;71.50;51.97;81.33;;
57092;Laerm;42968;52.094;4.328;2022-10-16T09:50:22;67.40;48.48;74.92;;
57092;Laerm;42968;52.094;4.328;2022-10-16T09:52:48;68.80;54.68;76.81;;
57092;Laerm;42968;52.094;4.328;2022-10-16T09:55:14;69.13;56.95;76.65;;
57092;Laerm;42968;52.094;4.328;2022-10-16T09:57:50;69.16;48.00;77.40;;
57092;Laerm;42968;52.094;4.328;2022-10-16T10:00:19;68.90;51.35;77.18;;
57092;Laerm;42968;52.094;4.328;2022-10-16T10:02:45;68.04;48.02;76.73;;
57092;Laerm;42968;52.094;4.328;2022-10-16T10:08:06;69.22;49.71;77.64;;
57092;Laerm;42968;52.094;4.328;2022-10-16T10:10:34;70.28;49.96;81.22;;
57092;Laerm;42968;52.094;4.328;2022-10-16T10:13:02;69.09;54.48;75.16;;
57092;Laerm;42968;52.094;4.328;2022-10-16T10:15:28;69.30;53.05;76.74;;
57092;Laerm;42968;52.094;4.328;2022-10-16T10:17:55;70.77;50.25;79.26;;
57092;Laerm;42968;52.094;4.328;2022-10-16T10:22:46;68.20;50.32;77.74;;
57092;Laerm;42968;52.094;4.328;2022-10-16T10:30:20;68.26;48.96;76.47;;
57092;Laerm;42968;52.094;4.328;2022-10-16T10:33:05;68.64;52.26;76.75;;
57092;Laerm;42968;52.094;4.328;2022-10-16T10:35:42;70.10;55.17;84.82;;
57092;Laerm;42968;52.094;4.328;2022-10-16T10:46:03;70.61;51.95;80.44;;
57092;Laerm;42968;52.094;4.328;2022-10-16T10:50:58;68.92;56.35;76.85;;
57092;Laerm;42968;52.094;4.328;2022-10-16T10:55:59;70.18;58.06;78.72;;
57092;Laerm;42968;52.094;4.328;2022-10-16T10:58:42;70.14;51.26;79.16;;
57092;Laerm;42968;52.094;4.328;2022-10-16T11:01:14;69.91;56.25;78.58;;
57092;Laerm;42968;52.094;4.328;2022-10-16T11:11:25;69.62;49.78;82.12;;
57092;Laerm;42968;52.094;4.328;2022-10-16T11:14:01;68.91;53.14;77.14;;
57092;Laerm;42968;52.094;4.328;2022-10-16T11:16:30;69.77;48.32;81.62;;
57092;Laerm;42968;52.094;4.328;2022-10-16T11:18:58;70.93;48.74;82.26;;
57092;Laerm;42968;52.094;4.328;2022-10-16T11:21:26;70.17;49.52;77.31;;
57092;Laerm;42968;52.094;4.328;2022-10-16T11:26:48;68.65;53.03;76.25;;
57092;Laerm;42968;52.094;4.328;2022-10-16T11:29:17;70.70;53.57;80.03;;
57092;Laerm;42968;52.094;4.328;2022-10-16T11:31:46;68.41;55.10;78.00;;
57092;Laerm;42968;52.094;4.328;2022-10-16T11:36:43;68.16;50.69;76.13;;
57092;Laerm;42968;52.094;4.328;2022-10-16T11:39:31;68.15;58.35;77.16;;
57092;Laerm;42968;52.094;4.328;2022-10-16T11:42:08;69.24;56.72;89.53;;
57092;Laerm;42968;52.094;4.328;2022-10-16T11:49:57;68.70;53.05;87.59;;
57092;Laerm;42968;52.094;4.328;2022-10-16T11:54:59;68.32;56.68;77.59;;
57092;Laerm;42968;52.094;4.328;2022-10-16T12:04:46;69.87;51.73;80.02;;
57092;Laerm;42968;52.094;4.328;2022-10-16T12:07:22;68.68;50.14;76.00;;
57092;Laerm;42968;52.094;4.328;2022-10-16T12:09:49;69.62;56.14;76.81;;
57092;Laerm;42968;52.094;4.328;2022-10-16T12:12:28;69.47;54.69;83.73;;
57092;Laerm;42968;52.094;4.328;2022-10-16T12:15:15;66.44;53.37;76.97;;
57092;Laerm;42968;52.094;4.328;2022-10-16T12:17:42;68.00;54.20;75.10;;
57092;Laerm;42968;52.094;4.328;2022-10-16T12:22:36;67.01;47.59;79.00;;
57092;Laerm;42968;52.094;4.328;2022-10-16T12:25:01;69.58;56.50;76.95;;
57092;Laerm;42968;52.094;4.328;2022-10-16T12:27:28;68.96;53.20;81.58;;
57092;Laerm;42968;52.094;4.328;2022-10-16T12:29:55;69.13;53.61;85.42;;
57092;Laerm;42968;52.094;4.328;2022-10-16T12:32:24;69.24;54.53;80.63;;
57092;Laerm;42968;52.094;4.328;2022-10-16T12:34:51;69.29;52.80;81.43;;
57092;Laerm;42968;52.094;4.328;2022-10-16T12:37:24;69.70;58.52;81.72;;
57092;Laerm;42968;52.094;4.328;2022-10-16T12:39:51;69.31;57.74;81.50;;
57092;Laerm;42968;52.094;4.328;2022-10-16T12:42:22;68.28;56.24;79.01;;
57092;Laerm;42968;52.094;4.328;2022-10-16T12:44:47;68.44;54.41;80.12;;
57092;Laerm;42968;52.094;4.328;2022-10-16T12:47:23;69.72;54.32;80.53;;
57092;Laerm;42968;52.094;4.328;2022-10-16T12:49:52;68.79;49.50;79.78;;
57092;Laerm;42968;52.094;4.328;2022-10-16T12:52:28;68.70;52.51;81.19;;
57092;Laerm;42968;52.094;4.328;2022-10-16T12:54:57;67.26;55.59;77.06;;
57092;Laerm;42968;52.094;4.328;2022-10-16T13:10:26;70.06;53.97;79.43;;
57092;Laerm;42968;52.094;4.328;2022-10-16T13:12:57;70.58;48.85;83.81;;
57092;Laerm;42968;52.094;4.328;2022-10-16T13:18:29;68.94;51.16;77.45;;
57092;Laerm;42968;52.094;4.328;2022-10-16T13:23:36;71.39;49.92;88.92;;
57092;Laerm;42968;52.094;4.328;2022-10-16T13:28:30;68.49;55.94;79.65;;
57092;Laerm;42968;52.094;4.328;2022-10-16T13:30:58;71.16;47.48;80.87;;
57092;Laerm;42968;52.094;4.328;2022-10-16T13:35:58;68.24;46.23;80.13;;
57092;Laerm;42968;52.094;4.328;2022-10-16T13:38:28;68.90;52.53;77.07;;
57092;Laerm;42968;52.094;4.328;2022-10-16T13:40:56;69.20;53.50;80.73;;
57092;Laerm;42968;52.094;4.328;2022-10-16T13:43:23;70.47;50.62;78.22;;
57092;Laerm;42968;52.094;4.328;2022-10-16T13:45:53;69.07;52.67;77.69;;
57092;Laerm;42968;52.094;4.328;2022-10-16T13:48:19;70.89;47.10;89.44;;
57092;Laerm;42968;52.094;4.328;2022-10-16T13:50:44;69.10;47.24;80.96;;
57092;Laerm;42968;52.094;4.328;2022-10-16T13:53:13;68.83;53.18;79.60;;
57092;Laerm;42968;52.094;4.328;2022-10-16T13:55:38;69.43;54.17;81.99;;
57092;Laerm;42968;52.094;4.328;2022-10-16T13:58:04;68.82;53.46;74.31;;
57092;Laerm;42968;52.094;4.328;2022-10-16T14:00:30;70.13;52.61;79.88;;
57092;Laerm;42968;52.094;4.328;2022-10-16T14:03:03;67.11;45.36;78.04;;
57092;Laerm;42968;52.094;4.328;2022-10-16T14:05:29;68.38;47.40;76.74;;
57092;Laerm;42968;52.094;4.328;2022-10-16T14:07:55;68.35;45.42;83.56;;
57092;Laerm;42968;52.094;4.328;2022-10-16T14:10:22;70.37;50.93;82.12;;
57092;Laerm;42968;52.094;4.328;2022-10-16T14:12:59;68.82;52.98;75.48;;
57092;Laerm;42968;52.094;4.328;2022-10-16T14:15:25;68.48;46.50;79.09;;
57092;Laerm;42968;52.094;4.328;2022-10-16T14:17:51;69.70;46.78;81.22;;
57092;Laerm;42968;52.094;4.328;2022-10-16T14:20:17;68.69;51.71;79.34;;
57092;Laerm;42968;52.094;4.328;2022-10-16T14:22:43;67.94;47.76;77.98;;
57092;Laerm;42968;52.094;4.328;2022-10-16T14:25:21;69.21;48.69;86.41;;
57092;Laerm;42968;52.094;4.328;2022-10-16T14:30:24;68.42;50.89;80.43;;
57092;Laerm;42968;52.094;4.328;2022-10-16T14:32:56;68.71;49.63;77.39;;
57092;Laerm;42968;52.094;4.328;2022-10-16T14:35:23;69.14;45.69;77.48;;
57092;Laerm;42968;52.094;4.328;2022-10-16T14:37:53;69.06;45.01;79.54;;
57092;Laerm;42968;52.094;4.328;2022-10-16T14:40:19;69.26;53.25;82.23;;
57092;Laerm;42968;52.094;4.328;2022-10-16T14:42:45;68.01;45.11;78.11;;
57092;Laerm;42968;52.094;4.328;2022-10-16T14:45:11;69.44;46.69;76.79;;
57092;Laerm;42968;52.094;4.328;2022-10-16T14:47:37;69.72;51.10;80.26;;
57092;Laerm;42968;52.094;4.328;2022-10-16T14:50:11;67.38;47.63;76.72;;
57092;Laerm;42968;52.094;4.328;2022-10-16T14:52:36;68.67;48.23;78.87;;
57092;Laerm;42968;52.094;4.328;2022-10-16T14:55:01;68.95;52.38;77.06;;
57092;Laerm;42968;52.094;4.328;2022-10-16T14:57:27;71.44;50.42;88.81;;
57092;Laerm;42968;52.094;4.328;2022-10-16T14:59:55;68.28;49.64;76.79;;
57092;Laerm;42968;52.094;4.328;2022-10-16T15:04:49;67.88;45.69;76.20;;
57092;Laerm;42968;52.094;4.328;2022-10-16T15:07:14;69.58;53.14;83.01;;
57092;Laerm;42968;52.094;4.328;2022-10-16T15:09:40;69.80;46.64;86.19;;
57092;Laerm;42968;52.094;4.328;2022-10-16T15:12:05;68.66;50.09;78.91;;
57092;Laerm;42968;52.094;4.328;2022-10-16T15:14:31;69.46;58.01;79.95;;
57092;Laerm;42968;52.094;4.328;2022-10-16T15:16:56;68.21;48.96;79.54;;
57092;Laerm;42968;52.094;4.328;2022-10-16T15:19:22;68.39;45.36;77.86;;
57092;Laerm;42968;52.094;4.328;2022-10-16T15:21:50;69.06;45.48;78.31;;
57092;Laerm;42968;52.094;4.328;2022-10-16T15:24:17;67.74;50.44;85.29;;
57092;Laerm;42968;52.094;4.328;2022-10-16T15:26:43;67.09;51.32;79.69;;
57092;Laerm;42968;52.094;4.328;2022-10-16T15:29:10;68.95;48.18;80.93;;
57092;Laerm;42968;52.094;4.328;2022-10-16T15:31:36;68.60;46.59;77.61;;
57092;Laerm;42968;52.094;4.328;2022-10-16T15:34:02;68.43;49.50;78.12;;
57092;Laerm;42968;52.094;4.328;2022-10-16T15:36:30;68.73;49.91;76.69;;
57092;Laerm;42968;52.094;4.328;2022-10-16T15:38:58;68.59;48.77;76.09;;
57092;Laerm;42968;52.094;4.328;2022-10-16T15:41:23;67.99;50.38;76.40;;
57092;Laerm;42968;52.094;4.328;2022-10-16T15:43:52;70.09;51.08;89.84;;
57092;Laerm;42968;52.094;4.328;2022-10-16T15:46:21;67.46;43.99;77.26;;